Hauptseite
METAR-TAF:

METAR-TAF

Flughäfen :

Flughafen Kassel-Calden

Kassel, Deutschland

Breite: 51-24N, Länge: 009-23E, Höhe: 277 m

Beobachtung

Neuester Wetterbericht von vor 39 Minuten, um 06:20 UTC
Wind 4 kt aus Ost
Temperatur 4°C
Luftfeuchtigkeit 100%
Luftdruck 1026 hPa
Sichtweite 10 km oder mehr
Nebel in der Nähe

METAR: EDVK 070620Z 10004KT 9999 VCFG NSC 04/04 Q1026

Zeit: 08:59 (06:59 UTC)

Prognose

Neuester Wetterbericht von vor 1 Stunde und 29 Minuten, um 05:30 UTC
Gültige Prognose vom 07 um 06 UTC bis 07 um 15 UTC
Wind 2 kt aus unterschiedlichen Richtungen
Sichtweite 10 km oder mehr
keine Wolken unter 1500 m und keine Kumulonimbus oder Gewitterwolken
Zeitweise
vom 07 um 06 UTC bis 07 um 08 UTC
Sichtweite: 0800 m
Nebel
Übergehend zu
vom 07 um 08 UTC bis 07 um 10 UTC
Wind 7 kt aus Süd

TAF: EDVK 070530Z 0706/0715 VRB02KT CAVOK TEMPO 0706/0708 0800 FG BECMG 0708/0710 18007KT

Wetterbeobachtungen und Prognosen von mehr als 4000 Flughäfen (METAR und TAF Bericht).

Die verfügbaren Stationen werden durch gelbe und rote Markierungen auf der Karte dargestellt.

Führen Sie die Maus auf sie, um den Namen der Station zu sehen.

Darauf klicken, um die Beobachtung von Wetterbeobachtungen und Prognosen zu sehen.

Um die Karte zu ändern : klicken Sie auf den grünen Tasten mit einem schwarzen Kreuz Zum Vergrößern, auf den grünen Button mit einem Gedankenstrich zu verkleinern, oder auf die grünen Pfeile für benachbarte Karten.


METAR-TAF: